KIPJ

Lincolnton-Lincoln County Regional Airport

Lincolnton, North Carolina, USA
METAR KIPJ 220955Z AUTO 00000KT 10SM SCT027 SCT041 18/18 A3013 RMK AO2 T01760176
Observed Flight Rules
May-22 @ 09:55 UTC (21 minutes ago) Visual Flight Rules
Visibility Clouds
10 miles
  • Scattered at 2,700' AGL
  • Scattered at 4,100' AGL
Temperatures Readings
Current 18°C / 64°F
Dewpoint 18°C / 64°F
Humidity 100%
Altimeter 30.13" Hg
Pressure 1020 hPa
Elevation 267
METAR KIPJ 220955Z AUTO 00000KT 10SM SCT027 SCT041 18/18 A3013 RMK AO2 T01760176
Observed Flight Rules
May-22 @ 09:55 UTC
(21 minutes ago)
VFR
Clouds
  • Scattered at 2,700' AGL
  • Scattered at 4,100' AGL
Temperature Dewpoint
18°C / 64°F 18°C / 64°F
Humidity Altimeter Pressure
100% 30.13" Hg 1020 hPa